createdAt,value
2018-11-25T00:00:03.263Z,2.20
2018-11-25T00:02:34.553Z,2.70
2018-11-25T00:05:02.981Z,3.10
2018-11-25T00:07:34.795Z,3.17
2018-11-25T00:09:59.715Z,2.97
2018-11-25T00:12:28.061Z,2.20
2018-11-25T00:14:56.359Z,3.00
2018-11-25T00:17:24.676Z,3.03
2018-11-25T00:19:52.922Z,2.87
2018-11-25T00:22:21.233Z,3.87
2018-11-25T00:24:49.496Z,3.73
2018-11-25T00:27:17.770Z,3.20
2018-11-25T00:29:46.062Z,3.67
2018-11-25T00:32:14.591Z,3.87
2018-11-25T00:34:42.905Z,3.00
2018-11-25T00:37:11.266Z,2.73
2018-11-25T00:39:39.568Z,3.33
2018-11-25T00:42:07.829Z,3.90
2018-11-25T00:44:36.101Z,3.80
2018-11-25T00:47:04.438Z,3.57
2018-11-25T00:49:32.821Z,2.83
2018-11-25T00:52:01.072Z,4.00
2018-11-25T00:54:29.365Z,3.90
2018-11-25T00:56:57.720Z,2.70
2018-11-25T00:59:26.003Z,3.10
2018-11-25T01:01:54.300Z,3.93
2018-11-25T01:04:22.629Z,4.77
2018-11-25T01:06:50.953Z,4.40
2018-11-25T01:09:19.461Z,4.30
2018-11-25T01:11:47.751Z,4.23
2018-11-25T01:14:16.050Z,3.90
2018-11-25T01:16:44.370Z,4.70
2018-11-25T01:30:36.733Z,3.63
2018-11-25T01:33:05.389Z,3.70
2018-11-25T01:35:33.700Z,4.43
2018-11-25T01:38:02.040Z,4.00
2018-11-25T01:40:30.346Z,3.00
2018-11-25T01:42:58.637Z,3.70
2018-11-25T01:45:27.013Z,4.30
2018-11-25T01:47:55.378Z,3.67
2018-11-25T01:50:23.648Z,4.23
2018-11-25T01:52:51.936Z,4.50
2018-11-25T01:55:20.232Z,4.03
2018-11-25T01:57:48.540Z,3.30
2018-11-25T02:00:18.101Z,5.30
2018-11-25T02:02:46.399Z,4.07
2018-11-25T02:05:14.770Z,4.13
2018-11-25T02:07:43.029Z,3.70
2018-11-25T02:10:15.167Z,3.50
2018-11-25T02:12:43.569Z,2.90
2018-11-25T02:15:13.500Z,3.50
2018-11-25T02:17:41.898Z,4.10
2018-11-25T02:20:20.182Z,3.00
2018-11-25T02:22:48.531Z,3.50
2018-11-25T02:25:16.992Z,4.10
2018-11-25T02:27:45.414Z,3.87
2018-11-25T02:30:15.023Z,2.93
2018-11-25T02:32:43.280Z,4.30
2018-11-25T02:35:12.404Z,4.77
2018-11-25T02:37:40.755Z,4.50
2018-11-25T02:40:13.780Z,3.93
2018-11-25T02:42:42.117Z,3.53
2018-11-25T02:45:13.348Z,4.30
2018-11-25T02:47:41.660Z,5.30
2018-11-25T02:50:30.530Z,2.67
2018-11-25T02:52:59.940Z,2.80
2018-11-25T02:55:28.330Z,4.50
2018-11-25T02:57:56.649Z,3.93
2018-11-25T03:00:24.988Z,4.23
2018-11-25T03:02:53.339Z,4.60
2018-11-25T03:05:21.643Z,5.73
2018-11-25T03:07:49.984Z,4.03
2018-11-25T03:10:18.336Z,4.13
2018-11-25T03:12:46.652Z,3.70
2018-11-25T03:15:16.679Z,3.73
2018-11-25T03:17:45.045Z,5.40
2018-11-25T03:20:17.081Z,4.70
2018-11-25T03:22:45.356Z,3.80
2018-11-25T03:25:19.461Z,3.87
2018-11-25T03:27:47.790Z,3.17
2018-11-25T03:30:18.168Z,4.43
2018-11-25T03:32:47.298Z,6.27
2018-11-25T03:35:15.572Z,4.97
2018-11-25T03:37:43.826Z,3.47
2018-11-25T03:40:13.936Z,5.23
2018-11-25T03:42:42.369Z,4.80
2018-11-25T03:45:13.120Z,3.47
2018-11-25T03:47:41.425Z,2.67
2018-11-25T03:50:10.790Z,3.87
2018-11-25T03:52:39.077Z,3.30
2018-11-25T03:55:09.524Z,2.97
2018-11-25T03:57:37.916Z,3.30
2018-11-25T04:00:13.201Z,3.07
2018-11-25T04:02:41.538Z,3.70
2018-11-25T04:05:11.082Z,4.47
2018-11-25T04:07:39.385Z,3.60
2018-11-25T04:10:11.169Z,5.00
2018-11-25T04:12:39.479Z,4.00
2018-11-25T04:15:11.221Z,4.60
2018-11-25T04:17:39.579Z,4.50
2018-11-25T04:20:10.679Z,4.03
2018-11-25T04:22:39.049Z,2.80
2018-11-25T04:25:10.156Z,4.33
2018-11-25T04:27:38.507Z,5.03
2018-11-25T04:30:12.712Z,4.87
2018-11-25T04:32:40.991Z,5.17
2018-11-25T04:35:10.312Z,4.30
2018-11-25T04:37:38.607Z,4.77
2018-11-25T04:40:09.277Z,4.90
2018-11-25T04:42:37.611Z,3.70
2018-11-25T04:45:08.315Z,2.53
2018-11-25T04:47:36.615Z,4.03
2018-11-25T04:50:15.385Z,3.47
2018-11-25T04:52:43.677Z,3.50
2018-11-25T04:55:11.957Z,2.83
2018-11-25T04:57:40.305Z,4.27
2018-11-25T05:00:11.762Z,3.40
2018-11-25T05:02:40.663Z,3.67
2018-11-25T05:05:10.783Z,3.33
2018-11-25T05:07:39.122Z,4.20
2018-11-25T05:10:10.512Z,3.93
2018-11-25T05:12:39.091Z,2.77
2018-11-25T05:15:09.320Z,6.10
2018-11-25T05:17:37.616Z,5.00
2018-11-25T05:20:08.012Z,5.47
2018-11-25T05:22:36.302Z,4.00
2018-11-25T05:25:04.993Z,5.10
2018-11-25T05:27:33.273Z,5.30
2018-11-25T05:30:01.590Z,3.40
2018-11-25T05:32:29.901Z,4.50
2018-11-25T05:34:58.202Z,4.73
2018-11-25T05:37:26.508Z,5.73
2018-11-25T05:39:54.752Z,5.40
2018-11-25T05:42:23.004Z,4.57
2018-11-25T05:44:51.272Z,5.47
2018-11-25T05:47:19.874Z,5.40
2018-11-25T05:49:48.227Z,4.43
2018-11-25T05:52:16.500Z,4.20
2018-11-25T05:54:44.851Z,4.03
2018-11-25T05:57:13.157Z,3.60
2018-11-25T05:59:41.467Z,5.57
2018-11-25T06:02:09.733Z,5.30
2018-11-25T06:04:37.979Z,5.00
2018-11-25T06:07:06.704Z,4.27
2018-11-25T06:09:34.964Z,4.13
2018-11-25T06:12:03.305Z,6.33
2018-11-25T06:14:31.594Z,4.80
2018-11-25T06:16:59.862Z,4.60
2018-11-25T06:19:28.158Z,4.43
2018-11-25T06:21:56.439Z,4.50
2018-11-25T06:24:24.691Z,3.57
2018-11-25T06:26:52.980Z,5.87
2018-11-25T06:29:21.261Z,3.90
2018-11-25T06:31:49.569Z,5.40
2018-11-25T06:34:17.887Z,4.60
2018-11-25T06:36:46.166Z,4.10
2018-11-25T06:39:14.491Z,3.87
2018-11-25T06:41:42.776Z,5.87
2018-11-25T06:44:11.019Z,4.27
2018-11-25T06:46:39.284Z,5.03
2018-11-25T06:49:07.548Z,4.37
2018-11-25T06:51:35.830Z,4.17
2018-11-25T06:54:04.125Z,5.43
2018-11-25T06:56:32.384Z,6.47
2018-11-25T06:59:00.656Z,4.00
2018-11-25T07:01:28.899Z,4.20
2018-11-25T07:03:57.199Z,6.47
2018-11-25T07:06:25.880Z,5.40
2018-11-25T07:08:54.511Z,6.03
2018-11-25T07:11:22.885Z,7.27
2018-11-25T07:13:51.252Z,4.87
2018-11-25T07:16:20.693Z,5.20
2018-11-25T07:18:48.935Z,5.03
2018-11-25T07:21:17.200Z,6.10
2018-11-25T07:23:45.480Z,4.97
2018-11-25T07:26:13.756Z,7.03
2018-11-25T07:28:42.009Z,4.77
2018-11-25T07:31:10.310Z,6.93
2018-11-25T07:33:38.589Z,5.00
2018-11-25T07:36:07.039Z,5.53
2018-11-25T07:38:35.269Z,6.47
2018-11-25T07:41:03.548Z,5.80
2018-11-25T07:43:31.796Z,5.60
2018-11-25T07:46:00.056Z,6.30
2018-11-25T07:48:28.331Z,6.03
2018-11-25T07:50:56.611Z,5.37
2018-11-25T07:53:25.095Z,8.20
2018-11-25T07:55:53.370Z,6.70
2018-11-25T07:58:21.683Z,4.03
2018-11-25T08:00:50.028Z,5.80
2018-11-25T08:03:18.336Z,5.83
2018-11-25T08:05:46.588Z,4.13
2018-11-25T08:08:14.850Z,5.43
2018-11-25T08:10:43.124Z,7.97
2018-11-25T08:13:11.427Z,6.30
2018-11-25T08:15:39.706Z,3.87
2018-11-25T08:18:08.107Z,5.33
2018-11-25T08:20:36.356Z,5.47
2018-11-25T08:23:04.732Z,7.60
2018-11-25T08:25:33.083Z,5.83
2018-11-25T08:28:01.485Z,6.20
2018-11-25T08:30:29.840Z,6.70
2018-11-25T08:32:58.222Z,6.53
2018-11-25T08:35:26.840Z,5.90
2018-11-25T08:37:55.419Z,4.93
2018-11-25T08:40:24.742Z,5.40
2018-11-25T08:42:53.415Z,6.20
2018-11-25T08:45:21.676Z,8.00
2018-11-25T08:47:49.943Z,7.77
2018-11-25T08:50:18.824Z,4.80
2018-11-25T08:52:52.411Z,6.53
2018-11-25T08:55:21.853Z,5.50
2018-11-25T08:57:52.411Z,6.20
2018-11-25T09:00:21.760Z,4.10
2018-11-25T09:02:50.894Z,6.27
2018-11-25T09:05:19.252Z,3.60
2018-11-25T09:07:47.580Z,5.70
2018-11-25T09:10:17.592Z,6.17
2018-11-25T09:12:47.329Z,5.50
2018-11-25T09:15:17.199Z,4.87
2018-11-25T09:17:45.469Z,7.50
2018-11-25T09:20:15.799Z,5.53
2018-11-25T09:22:44.373Z,7.33
2018-11-25T09:25:16.114Z,6.27
2018-11-25T09:27:44.371Z,5.80
2018-11-25T09:30:13.821Z,7.70
2018-11-25T09:32:42.206Z,6.60
2018-11-25T09:35:11.402Z,7.63
2018-11-25T09:37:39.679Z,5.10
2018-11-25T09:40:19.435Z,4.30
2018-11-25T09:42:48.050Z,5.90
2018-11-25T09:47:57.635Z,5.93
2018-11-25T09:50:26.027Z,6.13
2018-11-25T09:52:54.483Z,6.30
2018-11-25T09:55:25.268Z,6.77
2018-11-25T09:57:56.787Z,6.00
2018-11-25T10:00:28.145Z,4.87
2018-11-25T10:02:56.777Z,6.93
2018-11-25T10:05:25.682Z,6.50
2018-11-25T10:07:54.071Z,6.80
2018-11-25T10:10:23.372Z,8.37
2018-11-25T10:12:51.742Z,7.50
2018-11-25T10:15:24.265Z,6.57
2018-11-25T10:17:59.333Z,7.00
2018-11-25T10:20:24.272Z,6.57
2018-11-25T10:22:52.595Z,5.70
2018-11-25T10:25:20.964Z,6.47
2018-11-25T10:27:49.575Z,6.70
2018-11-25T10:30:20.881Z,5.73
2018-11-25T10:32:50.493Z,5.40
2018-11-25T10:35:18.906Z,6.43
2018-11-25T10:37:47.361Z,7.40
2018-11-25T10:40:17.873Z,5.23
2018-11-25T10:42:46.216Z,6.73
2018-11-25T10:45:19.737Z,6.10
2018-11-25T10:47:48.188Z,7.77
2018-11-25T10:50:19.530Z,5.67
2018-11-25T10:52:47.941Z,7.30
2018-11-25T10:55:18.173Z,7.53
2018-11-25T10:57:47.336Z,9.40
2018-11-25T11:00:24.342Z,6.40
2018-11-25T11:02:58.564Z,6.67
2018-11-25T11:05:32.573Z,5.87
2018-11-25T11:08:00.868Z,7.00
2018-11-25T11:10:29.268Z,6.97
2018-11-25T11:12:58.790Z,8.13
2018-11-25T11:15:25.912Z,7.93
2018-11-25T11:17:54.191Z,8.23
2018-11-25T11:20:22.461Z,7.13
2018-11-25T11:22:50.723Z,8.87
2018-11-25T11:25:19.744Z,6.60
2018-11-25T11:27:48.125Z,8.30
2018-11-25T11:30:16.449Z,8.77
2018-11-25T11:32:46.353Z,10.27
2018-11-25T11:35:14.730Z,8.63
2018-11-25T11:37:43.340Z,11.17
2018-11-25T11:40:13.058Z,9.07
2018-11-25T11:42:41.372Z,7.67
2018-11-25T11:45:12.146Z,7.20
2018-11-25T11:47:40.630Z,7.40
2018-11-25T11:50:11.336Z,7.03
2018-11-25T11:52:39.798Z,6.77
2018-11-25T11:55:11.419Z,9.30
2018-11-25T11:57:40.473Z,8.63
2018-11-25T12:00:17.184Z,7.60
2018-11-25T12:02:45.523Z,9.03
2018-11-25T12:05:13.847Z,7.23
2018-11-25T12:07:42.154Z,6.63
2018-11-25T12:10:11.735Z,6.73
2018-11-25T12:12:40.168Z,9.93
2018-11-25T12:15:14.096Z,10.23
2018-11-25T12:17:42.528Z,11.00
2018-11-25T12:20:11.151Z,10.50
2018-11-25T12:22:39.487Z,9.57
2018-11-25T12:25:14.046Z,9.60
2018-11-25T12:27:42.439Z,8.30
2018-11-25T12:30:12.656Z,7.80
2018-11-25T12:32:41.480Z,7.07
2018-11-25T12:35:10.849Z,7.10
2018-11-25T12:37:39.250Z,8.40
2018-11-25T12:40:09.716Z,13.23
2018-11-25T12:42:37.989Z,9.67
2018-11-25T12:45:09.513Z,8.10
2018-11-25T12:47:37.822Z,9.13
2018-11-25T12:50:09.037Z,8.60
2018-11-25T12:52:37.443Z,7.63
2018-11-25T12:55:09.049Z,7.43
2018-11-25T12:57:37.343Z,7.63
2018-11-25T13:00:43.083Z,7.57
2018-11-25T13:03:12.567Z,8.47
2018-11-25T13:05:45.899Z,7.27
2018-11-25T13:08:13.789Z,8.67
2018-11-25T13:10:42.119Z,9.77
2018-11-25T13:13:11.222Z,6.90
2018-11-25T13:15:39.551Z,6.90
2018-11-25T13:18:08.817Z,8.07
2018-11-25T13:20:37.089Z,8.57
2018-11-25T13:23:05.873Z,9.03
2018-11-25T13:25:34.129Z,5.80
2018-11-25T13:28:02.489Z,9.17
2018-11-25T13:30:31.744Z,7.90
2018-11-25T13:33:02.124Z,8.30
2018-11-25T13:35:31.952Z,8.60
2018-11-25T13:38:00.376Z,9.10
2018-11-25T13:40:28.661Z,6.67
2018-11-25T13:42:56.939Z,8.43
2018-11-25T13:45:25.263Z,9.60
2018-11-25T13:47:53.566Z,7.83
2018-11-25T13:50:21.876Z,8.50
2018-11-25T13:52:50.173Z,7.70
2018-11-25T13:55:21.913Z,6.83
2018-11-25T13:57:50.159Z,8.90
2018-11-25T14:00:26.089Z,7.80
2018-11-25T14:02:54.449Z,7.43
2018-11-25T14:05:22.729Z,6.67
2018-11-25T14:07:50.986Z,9.47
2018-11-25T14:10:23.187Z,6.50
2018-11-25T14:12:51.497Z,6.37
2018-11-25T14:15:19.785Z,7.87
2018-11-25T14:17:48.133Z,7.93
2018-11-25T14:20:16.403Z,10.93
2018-11-25T14:22:44.657Z,6.53
2018-11-25T14:25:15.736Z,6.37
2018-11-25T14:27:44.491Z,7.67
2018-11-25T14:30:15.341Z,7.20
2018-11-25T14:32:43.748Z,7.60
2018-11-25T14:35:13.585Z,8.73
2018-11-25T14:37:41.812Z,6.93
2018-11-25T14:40:14.506Z,7.73
2018-11-25T14:42:42.792Z,7.97
2018-11-25T14:45:12.157Z,8.50
2018-11-25T14:47:40.535Z,10.60
2018-11-25T14:50:11.486Z,6.97
2018-11-25T14:52:40.029Z,7.37
2018-11-25T14:55:10.630Z,6.13
2018-11-25T14:57:39.178Z,9.90
2018-11-25T15:00:15.721Z,7.07
2018-11-25T15:02:44.900Z,5.97
2018-11-25T15:05:21.013Z,7.23
2018-11-25T15:07:49.288Z,5.03
2018-11-25T15:10:17.517Z,6.87
2018-11-25T15:12:45.767Z,6.97
2018-11-25T15:15:14.940Z,7.10
2018-11-25T15:17:44.197Z,7.30
2018-11-25T15:20:13.113Z,5.10
2018-11-25T15:22:42.931Z,6.30
2018-11-25T15:25:14.806Z,6.77
2018-11-25T15:27:43.074Z,6.00
2018-11-25T15:30:11.773Z,5.83
2018-11-25T15:32:40.044Z,5.93
2018-11-25T15:35:10.304Z,6.70
2018-11-25T15:37:40.810Z,5.80
2018-11-25T15:40:14.331Z,5.57
2018-11-25T15:42:42.737Z,3.80
2018-11-25T15:45:11.372Z,5.63
2018-11-25T15:47:41.272Z,5.70
2018-11-25T15:50:13.848Z,5.77
2018-11-25T15:52:42.131Z,6.50
2018-11-25T15:55:13.597Z,5.33
2018-11-25T15:57:41.934Z,7.23
2018-11-25T16:00:14.654Z,6.50
2018-11-25T16:02:42.978Z,5.30
2018-11-25T16:05:15.951Z,5.70
2018-11-25T16:07:44.325Z,5.40
2018-11-25T16:10:13.664Z,4.43
2018-11-25T16:12:43.264Z,5.70
2018-11-25T16:15:15.567Z,6.27
2018-11-25T16:17:43.879Z,5.53
2018-11-25T16:20:16.221Z,8.00
2018-11-25T16:22:44.945Z,6.70
2018-11-25T16:25:15.317Z,7.80
2018-11-25T16:27:43.631Z,8.47
2018-11-25T16:30:15.171Z,6.30
2018-11-25T16:32:44.710Z,5.87
2018-11-25T16:35:13.045Z,5.10
2018-11-25T16:37:41.864Z,6.50
2018-11-25T16:40:16.665Z,6.50
2018-11-25T16:42:48.078Z,5.50
2018-11-25T16:45:19.557Z,6.27
2018-11-25T16:47:50.090Z,5.87
2018-11-25T16:50:25.019Z,5.70
2018-11-25T16:52:48.638Z,6.10
2018-11-25T16:55:18.684Z,9.43
2018-11-25T16:57:48.477Z,7.70
2018-11-25T17:00:19.950Z,5.37
2018-11-25T17:02:49.048Z,6.57
2018-11-25T17:05:19.926Z,8.50
2018-11-25T17:08:03.490Z,7.53
2018-11-25T17:10:51.875Z,7.43
2018-11-25T17:13:20.183Z,8.67
2018-11-25T17:15:48.528Z,6.40
2018-11-25T17:18:16.904Z,6.23
2018-11-25T17:20:45.232Z,7.30
2018-11-25T17:23:13.546Z,6.47
2018-11-25T17:25:41.870Z,7.90
2018-11-25T17:28:10.182Z,6.60
2018-11-25T17:30:38.448Z,5.50
2018-11-25T17:33:06.876Z,9.30
2018-11-25T17:35:35.159Z,6.60
2018-11-25T17:38:03.524Z,6.03
2018-11-25T17:40:31.794Z,7.37
2018-11-25T17:43:00.097Z,4.60
2018-11-25T17:45:28.432Z,5.60
2018-11-25T17:47:56.731Z,5.93
2018-11-25T17:50:27.047Z,6.80
2018-11-25T17:52:55.320Z,7.60
2018-11-25T17:55:24.928Z,6.57
2018-11-25T17:57:53.414Z,5.40
2018-11-25T18:00:24.769Z,6.87
2018-11-25T18:02:53.022Z,7.37
2018-11-25T18:05:21.620Z,7.47
2018-11-25T18:07:49.921Z,7.17
2018-11-25T18:10:18.254Z,10.40
2018-11-25T18:12:46.520Z,8.67
2018-11-25T18:15:16.542Z,6.50
2018-11-25T18:17:52.172Z,5.97
2018-11-25T18:20:20.444Z,5.30
2018-11-25T18:22:49.340Z,7.53
2018-11-25T18:25:17.645Z,6.37
2018-11-25T18:27:45.868Z,6.90
2018-11-25T18:30:15.678Z,4.87
2018-11-25T18:32:44.517Z,5.47
2018-11-25T18:35:12.895Z,6.10
2018-11-25T18:37:41.161Z,6.67
2018-11-25T18:40:11.009Z,6.03
2018-11-25T18:42:39.406Z,5.87
2018-11-25T18:45:11.414Z,6.27
2018-11-25T18:47:39.813Z,5.80
2018-11-25T18:50:12.403Z,6.83
2018-11-25T18:52:40.971Z,4.73
2018-11-25T18:55:08.198Z,7.20
2018-11-25T18:57:36.526Z,8.80
2018-11-25T19:00:40.341Z,8.60
2018-11-25T19:03:08.638Z,7.23
2018-11-25T19:05:36.915Z,7.07
2018-11-25T19:08:06.191Z,7.40
2018-11-25T19:10:34.801Z,7.97
2018-11-25T19:13:03.333Z,9.07
2018-11-25T19:15:31.607Z,7.10
2018-11-25T19:17:59.906Z,10.83
2018-11-25T19:20:28.997Z,7.00
2018-11-25T19:22:58.298Z,4.33
2018-11-25T19:25:26.575Z,5.90
2018-11-25T19:27:55.827Z,3.97
2018-11-25T19:30:26.837Z,3.70
2018-11-25T19:32:52.529Z,3.90
2018-11-25T19:35:22.369Z,5.10
2018-11-25T19:37:51.535Z,7.80
2018-11-25T19:40:22.401Z,6.40
2018-11-25T19:42:50.659Z,4.40
2018-11-25T19:45:21.130Z,5.60
2018-11-25T19:47:49.458Z,4.73
2018-11-25T19:50:24.243Z,5.60
2018-11-25T19:52:52.528Z,5.97
2018-11-25T19:55:21.696Z,5.53
2018-11-25T19:57:49.152Z,6.30
2018-11-25T20:00:19.927Z,6.00
2018-11-25T20:02:49.318Z,6.30
2018-11-25T20:05:17.510Z,5.40
2018-11-25T20:07:46.008Z,5.30
2018-11-25T20:10:20.664Z,4.20
2018-11-25T20:12:50.291Z,4.70
2018-11-25T20:15:19.617Z,4.17
2018-11-25T20:17:54.475Z,4.73
2018-11-25T20:20:18.603Z,5.67
2018-11-25T20:22:47.945Z,5.63
2018-11-25T20:25:17.356Z,6.00
2018-11-25T20:27:48.642Z,5.60
2018-11-25T20:30:18.374Z,4.63
2018-11-25T20:32:52.096Z,5.10
2018-11-25T20:35:20.599Z,5.00
2018-11-25T20:37:54.247Z,5.33
2018-11-25T20:40:22.521Z,5.00
2018-11-25T20:42:50.905Z,4.00
2018-11-25T20:45:25.521Z,4.60
2018-11-25T20:47:54.487Z,4.00
2018-11-25T20:50:22.929Z,4.10
2018-11-25T20:52:56.528Z,3.07
2018-11-25T20:55:25.709Z,3.33
2018-11-25T20:57:54.348Z,3.47
2018-11-25T21:00:24.912Z,4.60
2018-11-25T21:02:53.685Z,5.33
2018-11-25T21:05:22.048Z,3.30
2018-11-25T21:07:50.352Z,4.37
2018-11-25T21:10:19.771Z,4.70
2018-11-25T21:12:53.628Z,3.93
2018-11-25T21:15:21.961Z,3.20
2018-11-25T21:17:50.316Z,3.63
2018-11-25T21:20:21.015Z,3.67
2018-11-25T21:22:49.332Z,3.70
2018-11-25T21:25:18.770Z,4.93
2018-11-25T21:27:47.199Z,4.17
2018-11-25T21:30:17.518Z,4.10
2018-11-25T21:32:46.598Z,3.60
2018-11-25T21:35:14.871Z,5.00
2018-11-25T21:37:43.213Z,5.10
2018-11-25T21:40:12.764Z,3.77
2018-11-25T21:42:41.058Z,4.20
2018-11-25T21:45:12.571Z,4.63
2018-11-25T21:47:40.895Z,3.73
2018-11-25T21:50:17.142Z,3.77
2018-11-25T21:52:45.428Z,4.77
2018-11-25T21:55:14.899Z,4.10
2018-11-25T21:57:43.184Z,4.47
2018-11-25T22:00:14.049Z,3.23
2018-11-25T22:02:42.358Z,4.70
2018-11-25T22:05:11.210Z,4.70
2018-11-25T22:07:39.552Z,5.03
2018-11-25T22:10:10.010Z,5.10
2018-11-25T22:12:39.069Z,6.97
2018-11-25T22:15:13.416Z,4.10
2018-11-25T22:17:42.220Z,4.30
2018-11-25T22:20:11.593Z,5.33
2018-11-25T22:22:39.871Z,4.67
2018-11-25T22:25:09.452Z,5.20
2018-11-25T22:27:37.725Z,4.93
2018-11-25T22:30:09.515Z,3.77
2018-11-25T22:32:37.801Z,2.90
2018-11-25T22:35:10.656Z,4.20
2018-11-25T22:37:38.871Z,3.07
2018-11-25T22:40:09.479Z,4.03
2018-11-25T22:42:38.163Z,4.50
2018-11-25T22:45:08.312Z,4.33
2018-11-25T22:47:36.744Z,4.13
2018-11-25T22:50:05.923Z,4.17
2018-11-25T22:52:34.185Z,4.57
2018-11-25T22:55:02.540Z,4.30
2018-11-25T22:57:30.842Z,3.93
2018-11-25T22:59:59.106Z,4.30
2018-11-25T23:02:27.501Z,5.70
2018-11-25T23:05:07.195Z,4.97
2018-11-25T23:07:35.685Z,5.10
2018-11-25T23:10:04.363Z,6.80
2018-11-25T23:12:32.741Z,4.43
2018-11-25T23:15:01.161Z,4.33
2018-11-25T23:17:29.653Z,4.47
2018-11-25T23:19:57.883Z,4.90
2018-11-25T23:22:26.267Z,4.93
2018-11-25T23:24:55.034Z,5.20
2018-11-25T23:27:23.251Z,5.77
2018-11-25T23:29:51.523Z,5.03
2018-11-25T23:32:20.723Z,4.73
2018-11-25T23:34:49.012Z,5.53
2018-11-25T23:37:18.234Z,5.57
2018-11-25T23:39:46.748Z,4.60
2018-11-25T23:42:15.006Z,5.90
2018-11-25T23:44:43.389Z,3.70
2018-11-25T23:47:11.723Z,3.63
2018-11-25T23:49:40.179Z,4.47
2018-11-25T23:52:08.462Z,4.63
2018-11-25T23:54:36.773Z,4.33
2018-11-25T23:57:05.444Z,4.90
2018-11-25T23:59:33.740Z,3.93
